In Rescue
 
Open Full Screen Window  High Contrast Mode
Wind Gusting 00 knots
06
March 19, 2019 5:50 PM CDT
Weather Information
Wind Direction
  240 °
Wind Speed
  06 kt (7 mph)
Wind Gust
  00 kt (0 mph)
Altimeter
30.11 in
Visibility
10 SM
Temperature
07° C
45° F
Dewpoint
-02° C
28° F
Humidity
53%
1hr Rain Fall
00.00 in.
24hr Rain Fall
00.00 in.
Sky Condition
Clear
VFR

METAR KROS 192250Z AUTO 24006KT 10SM CLR 07/M02 A3011 RMK AO2 T00651022

FAA Disclaimer: The data displayed is for advisory purposes only and is not to be used for flight planning or operations.